sensor_id;sensor_type;location;lat;lon;timestamp;temperature;humidity
79055;DHT22;68452;47.186;-1.528;2023-07-08T00:00:19;24.70;62.80
79055;DHT22;68452;47.186;-1.528;2023-07-08T00:02:45;24.70;62.90
79055;DHT22;68452;47.186;-1.528;2023-07-08T00:05:15;24.70;62.90
79055;DHT22;68452;47.186;-1.528;2023-07-08T00:07:42;24.70;61.70
79055;DHT22;68452;47.186;-1.528;2023-07-08T00:12:37;24.80;59.80
79055;DHT22;68452;47.186;-1.528;2023-07-08T00:15:04;24.80;59.40
79055;DHT22;68452;47.186;-1.528;2023-07-08T00:17:30;24.80;59.10
79055;DHT22;68452;47.186;-1.528;2023-07-08T00:19:56;24.90;58.70
79055;DHT22;68452;47.186;-1.528;2023-07-08T00:22:22;24.90;58.40
79055;DHT22;68452;47.186;-1.528;2023-07-08T00:24:50;24.90;58.10
79055;DHT22;68452;47.186;-1.528;2023-07-08T00:27:16;24.90;58.00
79055;DHT22;68452;47.186;-1.528;2023-07-08T00:29:43;24.90;57.70
79055;DHT22;68452;47.186;-1.528;2023-07-08T00:32:14;24.90;57.70
79055;DHT22;68452;47.186;-1.528;2023-07-08T00:34:41;24.90;57.60
79055;DHT22;68452;47.186;-1.528;2023-07-08T00:37:11;24.80;57.60
79055;DHT22;68452;47.186;-1.528;2023-07-08T00:39:38;24.80;57.60
79055;DHT22;68452;47.186;-1.528;2023-07-08T00:42:17;24.90;57.80
79055;DHT22;68452;47.186;-1.528;2023-07-08T00:44:44;24.80;57.90
79055;DHT22;68452;47.186;-1.528;2023-07-08T00:47:11;24.80;58.10
79055;DHT22;68452;47.186;-1.528;2023-07-08T00:50:02;24.80;58.20
79055;DHT22;68452;47.186;-1.528;2023-07-08T00:52:29;24.80;58.40
79055;DHT22;68452;47.186;-1.528;2023-07-08T00:54:58;24.70;58.50
79055;DHT22;68452;47.186;-1.528;2023-07-08T00:57:27;24.70;58.70
79055;DHT22;68452;47.186;-1.528;2023-07-08T01:00:09;24.70;58.70
79055;DHT22;68452;47.186;-1.528;2023-07-08T01:02:42;24.70;59.00
79055;DHT22;68452;47.186;-1.528;2023-07-08T01:05:13;24.60;59.10
79055;DHT22;68452;47.186;-1.528;2023-07-08T01:07:42;24.60;59.30
79055;DHT22;68452;47.186;-1.528;2023-07-08T01:10:12;24.60;59.70
79055;DHT22;68452;47.186;-1.528;2023-07-08T01:12:43;24.60;59.80
79055;DHT22;68452;47.186;-1.528;2023-07-08T01:15:10;24.50;60.10
79055;DHT22;68452;47.186;-1.528;2023-07-08T01:17:36;24.50;60.40
79055;DHT22;68452;47.186;-1.528;2023-07-08T01:20:05;24.50;60.60
79055;DHT22;68452;47.186;-1.528;2023-07-08T01:22:34;24.50;60.90
79055;DHT22;68452;47.186;-1.528;2023-07-08T01:25:01;24.50;60.90
79055;DHT22;68452;47.186;-1.528;2023-07-08T01:27:31;24.50;61.00
79055;DHT22;68452;47.186;-1.528;2023-07-08T01:29:59;24.50;61.00
79055;DHT22;68452;47.186;-1.528;2023-07-08T01:32:25;24.40;61.10
79055;DHT22;68452;47.186;-1.528;2023-07-08T01:34:53;24.40;61.20
79055;DHT22;68452;47.186;-1.528;2023-07-08T01:37:36;24.40;61.30
79055;DHT22;68452;47.186;-1.528;2023-07-08T01:40:31;24.40;61.40
79055;DHT22;68452;47.186;-1.528;2023-07-08T01:42:58;24.40;61.40
79055;DHT22;68452;47.186;-1.528;2023-07-08T01:45:26;24.40;61.40
79055;DHT22;68452;47.186;-1.528;2023-07-08T01:48:01;24.40;61.50
79055;DHT22;68452;47.186;-1.528;2023-07-08T01:50:29;24.40;61.40
79055;DHT22;68452;47.186;-1.528;2023-07-08T01:52:59;24.30;61.70
79055;DHT22;68452;47.186;-1.528;2023-07-08T01:55:26;24.30;61.70
79055;DHT22;68452;47.186;-1.528;2023-07-08T01:57:54;24.30;61.80
79055;DHT22;68452;47.186;-1.528;2023-07-08T02:00:21;24.30;62.00
79055;DHT22;68452;47.186;-1.528;2023-07-08T02:02:48;24.30;62.10
79055;DHT22;68452;47.186;-1.528;2023-07-08T02:05:14;24.30;62.10
79055;DHT22;68452;47.186;-1.528;2023-07-08T02:07:40;24.30;62.20
79055;DHT22;68452;47.186;-1.528;2023-07-08T02:10:06;24.20;62.50
79055;DHT22;68452;47.186;-1.528;2023-07-08T02:12:32;24.20;62.70
79055;DHT22;68452;47.186;-1.528;2023-07-08T02:15:02;24.20;62.80
79055;DHT22;68452;47.186;-1.528;2023-07-08T02:17:28;24.10;62.90
79055;DHT22;68452;47.186;-1.528;2023-07-08T02:19:57;24.20;62.90
79055;DHT22;68452;47.186;-1.528;2023-07-08T02:22:23;24.20;63.00
79055;DHT22;68452;47.186;-1.528;2023-07-08T02:24:48;24.10;63.10
79055;DHT22;68452;47.186;-1.528;2023-07-08T02:27:14;24.10;63.20
79055;DHT22;68452;47.186;-1.528;2023-07-08T02:29:40;24.10;63.40
79055;DHT22;68452;47.186;-1.528;2023-07-08T02:32:08;24.00;63.50
79055;DHT22;68452;47.186;-1.528;2023-07-08T02:34:38;24.00;63.60
79055;DHT22;68452;47.186;-1.528;2023-07-08T02:37:04;24.00;63.80
79055;DHT22;68452;47.186;-1.528;2023-07-08T02:39:30;24.00;63.80
79055;DHT22;68452;47.186;-1.528;2023-07-08T02:41:56;24.00;63.90
79055;DHT22;68452;47.186;-1.528;2023-07-08T02:44:22;23.90;64.00
79055;DHT22;68452;47.186;-1.528;2023-07-08T02:46:48;23.90;64.10
79055;DHT22;68452;47.186;-1.528;2023-07-08T02:49:14;24.00;64.10
79055;DHT22;68452;47.186;-1.528;2023-07-08T02:51:39;23.90;64.20
79055;DHT22;68452;47.186;-1.528;2023-07-08T02:54:05;23.90;64.30
79055;DHT22;68452;47.186;-1.528;2023-07-08T02:56:31;23.90;64.20
79055;DHT22;68452;47.186;-1.528;2023-07-08T02:58:57;23.90;64.20
79055;DHT22;68452;47.186;-1.528;2023-07-08T03:01:23;23.90;64.30
79055;DHT22;68452;47.186;-1.528;2023-07-08T03:03:48;23.90;64.30
79055;DHT22;68452;47.186;-1.528;2023-07-08T03:06:15;23.90;64.40
79055;DHT22;68452;47.186;-1.528;2023-07-08T03:08:41;23.90;64.40
79055;DHT22;68452;47.186;-1.528;2023-07-08T03:11:08;23.90;64.40
79055;DHT22;68452;47.186;-1.528;2023-07-08T03:13:34;23.90;64.40
79055;DHT22;68452;47.186;-1.528;2023-07-08T03:16:02;23.80;64.50
79055;DHT22;68452;47.186;-1.528;2023-07-08T03:18:29;23.80;64.60
79055;DHT22;68452;47.186;-1.528;2023-07-08T03:20:56;23.80;64.60
79055;DHT22;68452;47.186;-1.528;2023-07-08T03:23:23;23.80;64.50
79055;DHT22;68452;47.186;-1.528;2023-07-08T03:25:49;23.80;64.50
79055;DHT22;68452;47.186;-1.528;2023-07-08T03:28:15;23.80;64.60
79055;DHT22;68452;47.186;-1.528;2023-07-08T03:30:42;23.80;64.60
79055;DHT22;68452;47.186;-1.528;2023-07-08T03:33:09;23.70;64.70
79055;DHT22;68452;47.186;-1.528;2023-07-08T03:35:35;23.70;64.70
79055;DHT22;68452;47.186;-1.528;2023-07-08T03:38:02;23.80;64.70
79055;DHT22;68452;47.186;-1.528;2023-07-08T03:40:28;23.80;64.60
79055;DHT22;68452;47.186;-1.528;2023-07-08T03:42:54;23.80;64.50
79055;DHT22;68452;47.186;-1.528;2023-07-08T03:45:20;23.80;64.60
79055;DHT22;68452;47.186;-1.528;2023-07-08T03:47:46;23.80;64.60
79055;DHT22;68452;47.186;-1.528;2023-07-08T03:50:18;23.80;64.60
79055;DHT22;68452;47.186;-1.528;2023-07-08T03:52:45;23.80;64.60
79055;DHT22;68452;47.186;-1.528;2023-07-08T03:55:11;23.80;64.60
79055;DHT22;68452;47.186;-1.528;2023-07-08T03:57:37;23.80;64.40
79055;DHT22;68452;47.186;-1.528;2023-07-08T04:00:04;23.80;64.40
79055;DHT22;68452;47.186;-1.528;2023-07-08T04:02:30;23.80;64.40
79055;DHT22;68452;47.186;-1.528;2023-07-08T04:04:55;23.80;64.50
79055;DHT22;68452;47.186;-1.528;2023-07-08T04:07:21;23.80;64.50
79055;DHT22;68452;47.186;-1.528;2023-07-08T04:09:47;23.80;64.60
79055;DHT22;68452;47.186;-1.528;2023-07-08T04:12:16;23.80;64.50
79055;DHT22;68452;47.186;-1.528;2023-07-08T04:14:41;23.80;64.50
79055;DHT22;68452;47.186;-1.528;2023-07-08T04:17:09;23.80;64.60
79055;DHT22;68452;47.186;-1.528;2023-07-08T04:19:36;23.80;64.60
79055;DHT22;68452;47.186;-1.528;2023-07-08T04:22:03;23.80;64.60
79055;DHT22;68452;47.186;-1.528;2023-07-08T04:24:28;23.80;64.50
79055;DHT22;68452;47.186;-1.528;2023-07-08T04:26:54;23.80;64.50
79055;DHT22;68452;47.186;-1.528;2023-07-08T04:29:22;23.80;64.60
79055;DHT22;68452;47.186;-1.528;2023-07-08T04:31:48;23.80;64.60
79055;DHT22;68452;47.186;-1.528;2023-07-08T04:34:15;23.80;64.60
79055;DHT22;68452;47.186;-1.528;2023-07-08T04:36:41;23.70;64.60
79055;DHT22;68452;47.186;-1.528;2023-07-08T04:39:08;23.70;64.60
79055;DHT22;68452;47.186;-1.528;2023-07-08T04:41:37;23.80;64.50
79055;DHT22;68452;47.186;-1.528;2023-07-08T04:44:07;23.70;64.40
79055;DHT22;68452;47.186;-1.528;2023-07-08T04:46:39;23.80;64.50
79055;DHT22;68452;47.186;-1.528;2023-07-08T04:49:07;23.80;64.40
79055;DHT22;68452;47.186;-1.528;2023-07-08T04:51:35;23.80;64.40
79055;DHT22;68452;47.186;-1.528;2023-07-08T04:54:01;23.80;64.00
79055;DHT22;68452;47.186;-1.528;2023-07-08T04:56:53;23.80;64.00
79055;DHT22;68452;47.186;-1.528;2023-07-08T04:59:22;23.80;63.90
79055;DHT22;68452;47.186;-1.528;2023-07-08T05:01:49;23.80;63.70
79055;DHT22;68452;47.186;-1.528;2023-07-08T05:04:16;23.80;63.70
79055;DHT22;68452;47.186;-1.528;2023-07-08T05:06:42;23.80;63.60
79055;DHT22;68452;47.186;-1.528;2023-07-08T05:09:08;23.80;63.70
79055;DHT22;68452;47.186;-1.528;2023-07-08T05:11:35;23.80;64.00
79055;DHT22;68452;47.186;-1.528;2023-07-08T05:14:02;23.70;64.40
79055;DHT22;68452;47.186;-1.528;2023-07-08T05:16:28;23.70;64.90
79055;DHT22;68452;47.186;-1.528;2023-07-08T05:18:54;23.60;66.70
79055;DHT22;68452;47.186;-1.528;2023-07-08T05:21:20;23.60;69.10
79055;DHT22;68452;47.186;-1.528;2023-07-08T05:23:47;23.50;70.50
79055;DHT22;68452;47.186;-1.528;2023-07-08T05:26:15;23.40;71.00
79055;DHT22;68452;47.186;-1.528;2023-07-08T05:28:41;23.30;71.10
79055;DHT22;68452;47.186;-1.528;2023-07-08T05:31:07;23.20;71.40
79055;DHT22;68452;47.186;-1.528;2023-07-08T05:33:33;23.20;71.30
79055;DHT22;68452;47.186;-1.528;2023-07-08T05:35:59;23.10;71.20
79055;DHT22;68452;47.186;-1.528;2023-07-08T05:38:26;23.10;71.10
79055;DHT22;68452;47.186;-1.528;2023-07-08T05:40:56;23.00;71.00
79055;DHT22;68452;47.186;-1.528;2023-07-08T05:43:23;23.00;70.70
79055;DHT22;68452;47.186;-1.528;2023-07-08T05:45:49;23.00;70.70
79055;DHT22;68452;47.186;-1.528;2023-07-08T05:48:15;23.00;70.60
79055;DHT22;68452;47.186;-1.528;2023-07-08T05:50:41;23.00;70.50
79055;DHT22;68452;47.186;-1.528;2023-07-08T05:53:10;23.00;70.30
79055;DHT22;68452;47.186;-1.528;2023-07-08T05:55:37;23.00;70.20
79055;DHT22;68452;47.186;-1.528;2023-07-08T05:58:03;23.00;70.20
79055;DHT22;68452;47.186;-1.528;2023-07-08T06:00:29;23.00;69.90
79055;DHT22;68452;47.186;-1.528;2023-07-08T06:02:54;22.90;69.80
79055;DHT22;68452;47.186;-1.528;2023-07-08T06:05:20;22.90;69.90
79055;DHT22;68452;47.186;-1.528;2023-07-08T06:07:46;22.90;69.90
79055;DHT22;68452;47.186;-1.528;2023-07-08T06:10:12;22.90;69.70
79055;DHT22;68452;47.186;-1.528;2023-07-08T06:12:38;22.80;70.00
79055;DHT22;68452;47.186;-1.528;2023-07-08T06:15:04;22.80;70.50
79055;DHT22;68452;47.186;-1.528;2023-07-08T06:17:30;22.80;70.60
79055;DHT22;68452;47.186;-1.528;2023-07-08T06:19:55;22.80;70.80
79055;DHT22;68452;47.186;-1.528;2023-07-08T06:22:21;22.80;71.10
79055;DHT22;68452;47.186;-1.528;2023-07-08T06:24:47;22.80;71.10
79055;DHT22;68452;47.186;-1.528;2023-07-08T06:27:14;22.80;71.10
79055;DHT22;68452;47.186;-1.528;2023-07-08T06:29:40;22.80;70.90
79055;DHT22;68452;47.186;-1.528;2023-07-08T06:32:06;22.80;70.90
79055;DHT22;68452;47.186;-1.528;2023-07-08T06:34:32;22.80;70.90
79055;DHT22;68452;47.186;-1.528;2023-07-08T06:36:58;22.90;71.00
79055;DHT22;68452;47.186;-1.528;2023-07-08T06:39:24;22.90;71.00
79055;DHT22;68452;47.186;-1.528;2023-07-08T06:41:50;22.90;70.70
79055;DHT22;68452;47.186;-1.528;2023-07-08T06:44:16;22.80;70.70
79055;DHT22;68452;47.186;-1.528;2023-07-08T06:46:41;22.90;70.80
79055;DHT22;68452;47.186;-1.528;2023-07-08T06:49:07;22.90;70.90
79055;DHT22;68452;47.186;-1.528;2023-07-08T06:51:35;22.90;70.90
79055;DHT22;68452;47.186;-1.528;2023-07-08T06:54:02;22.90;71.00
79055;DHT22;68452;47.186;-1.528;2023-07-08T06:56:40;23.00;71.20
79055;DHT22;68452;47.186;-1.528;2023-07-08T06:59:09;22.90;71.20
79055;DHT22;68452;47.186;-1.528;2023-07-08T07:01:36;23.00;71.10
79055;DHT22;68452;47.186;-1.528;2023-07-08T07:04:04;23.00;70.40
79055;DHT22;68452;47.186;-1.528;2023-07-08T07:06:30;23.00;69.90
79055;DHT22;68452;47.186;-1.528;2023-07-08T07:08:56;23.00;69.90
79055;DHT22;68452;47.186;-1.528;2023-07-08T07:11:22;23.00;69.90
79055;DHT22;68452;47.186;-1.528;2023-07-08T07:13:48;23.00;69.90
79055;DHT22;68452;47.186;-1.528;2023-07-08T07:16:13;23.00;69.60
79055;DHT22;68452;47.186;-1.528;2023-07-08T07:18:39;23.00;69.80
79055;DHT22;68452;47.186;-1.528;2023-07-08T07:21:05;23.00;70.00
79055;DHT22;68452;47.186;-1.528;2023-07-08T07:23:31;23.00;69.60
79055;DHT22;68452;47.186;-1.528;2023-07-08T07:25:57;23.00;69.80
79055;DHT22;68452;47.186;-1.528;2023-07-08T07:28:23;23.00;69.60
79055;DHT22;68452;47.186;-1.528;2023-07-08T07:30:59;23.00;70.00
79055;DHT22;68452;47.186;-1.528;2023-07-08T07:33:25;23.10;69.90
79055;DHT22;68452;47.186;-1.528;2023-07-08T07:35:51;23.20;69.60
79055;DHT22;68452;47.186;-1.528;2023-07-08T07:38:17;23.20;69.50
79055;DHT22;68452;47.186;-1.528;2023-07-08T07:40:43;23.20;69.80
79055;DHT22;68452;47.186;-1.528;2023-07-08T07:43:10;23.20;69.50
79055;DHT22;68452;47.186;-1.528;2023-07-08T07:45:36;23.20;69.90
79055;DHT22;68452;47.186;-1.528;2023-07-08T07:48:02;23.20;69.80
79055;DHT22;68452;47.186;-1.528;2023-07-08T07:50:28;23.20;69.50
79055;DHT22;68452;47.186;-1.528;2023-07-08T07:52:54;23.30;69.80
79055;DHT22;68452;47.186;-1.528;2023-07-08T07:55:20;23.30;70.50
79055;DHT22;68452;47.186;-1.528;2023-07-08T07:57:45;23.30;69.50
79055;DHT22;68452;47.186;-1.528;2023-07-08T08:00:12;23.30;69.20
79055;DHT22;68452;47.186;-1.528;2023-07-08T08:02:42;23.30;69.70
79055;DHT22;68452;47.186;-1.528;2023-07-08T08:05:08;23.30;69.40
79055;DHT22;68452;47.186;-1.528;2023-07-08T08:07:34;23.30;69.30
79055;DHT22;68452;47.186;-1.528;2023-07-08T08:10:02;23.30;68.90
79055;DHT22;68452;47.186;-1.528;2023-07-08T08:12:28;23.30;68.90
79055;DHT22;68452;47.186;-1.528;2023-07-08T08:14:55;23.30;68.80
79055;DHT22;68452;47.186;-1.528;2023-07-08T08:17:20;23.30;68.20
79055;DHT22;68452;47.186;-1.528;2023-07-08T08:19:46;23.30;68.90
79055;DHT22;68452;47.186;-1.528;2023-07-08T08:22:12;23.30;69.10
79055;DHT22;68452;47.186;-1.528;2023-07-08T08:24:38;23.40;68.90
79055;DHT22;68452;47.186;-1.528;2023-07-08T08:27:04;23.40;68.70
79055;DHT22;68452;47.186;-1.528;2023-07-08T08:29:30;23.40;68.00
79055;DHT22;68452;47.186;-1.528;2023-07-08T08:31:56;23.40;66.90
79055;DHT22;68452;47.186;-1.528;2023-07-08T08:34:22;23.30;66.70
79055;DHT22;68452;47.186;-1.528;2023-07-08T08:36:48;23.40;67.40
79055;DHT22;68452;47.186;-1.528;2023-07-08T08:39:13;23.40;67.90
79055;DHT22;68452;47.186;-1.528;2023-07-08T08:41:41;23.40;67.90
79055;DHT22;68452;47.186;-1.528;2023-07-08T08:44:14;23.50;68.60
79055;DHT22;68452;47.186;-1.528;2023-07-08T08:47:25;23.50;68.80
79055;DHT22;68452;47.186;-1.528;2023-07-08T08:49:52;23.50;69.10
79055;DHT22;68452;47.186;-1.528;2023-07-08T08:52:20;23.50;68.70
79055;DHT22;68452;47.186;-1.528;2023-07-08T08:54:46;23.50;67.00
79055;DHT22;68452;47.186;-1.528;2023-07-08T08:57:37;23.50;67.00
79055;DHT22;68452;47.186;-1.528;2023-07-08T09:00:07;23.60;67.40
79055;DHT22;68452;47.186;-1.528;2023-07-08T09:02:39;23.60;67.70
79055;DHT22;68452;47.186;-1.528;2023-07-08T09:05:08;23.60;67.50
79055;DHT22;68452;47.186;-1.528;2023-07-08T09:08:05;23.70;67.00
79055;DHT22;68452;47.186;-1.528;2023-07-08T09:10:42;23.70;66.80
79055;DHT22;68452;47.186;-1.528;2023-07-08T09:13:30;23.70;67.30
79055;DHT22;68452;47.186;-1.528;2023-07-08T09:19:04;23.80;65.90
79055;DHT22;68452;47.186;-1.528;2023-07-08T09:21:40;23.80;65.60
79055;DHT22;68452;47.186;-1.528;2023-07-08T09:24:17;23.90;64.60
79055;DHT22;68452;47.186;-1.528;2023-07-08T09:26:45;23.90;63.30
79055;DHT22;68452;47.186;-1.528;2023-07-08T09:29:12;23.90;64.20
79055;DHT22;68452;47.186;-1.528;2023-07-08T09:31:39;24.00;64.40
79055;DHT22;68452;47.186;-1.528;2023-07-08T09:34:16;24.00;64.40
79055;DHT22;68452;47.186;-1.528;2023-07-08T09:36:44;24.00;62.50
79055;DHT22;68452;47.186;-1.528;2023-07-08T09:39:13;24.00;61.50
79055;DHT22;68452;47.186;-1.528;2023-07-08T09:41:40;24.10;62.60
79055;DHT22;68452;47.186;-1.528;2023-07-08T09:44:16;24.10;62.10
79055;DHT22;68452;47.186;-1.528;2023-07-08T09:46:43;24.10;60.20
79055;DHT22;68452;47.186;-1.528;2023-07-08T09:49:21;24.10;61.90
79055;DHT22;68452;47.186;-1.528;2023-07-08T09:51:48;24.20;63.20
79055;DHT22;68452;47.186;-1.528;2023-07-08T09:54:19;24.20;63.30
79055;DHT22;68452;47.186;-1.528;2023-07-08T09:56:55;24.20;61.70
79055;DHT22;68452;47.186;-1.528;2023-07-08T09:59:27;24.30;59.10
79055;DHT22;68452;47.186;-1.528;2023-07-08T10:01:53;24.30;59.70
79055;DHT22;68452;47.186;-1.528;2023-07-08T10:04:19;24.30;59.50
79055;DHT22;68452;47.186;-1.528;2023-07-08T10:06:46;24.40;59.20
79055;DHT22;68452;47.186;-1.528;2023-07-08T10:09:19;24.40;58.90
79055;DHT22;68452;47.186;-1.528;2023-07-08T10:11:53;24.40;58.40
79055;DHT22;68452;47.186;-1.528;2023-07-08T10:14:26;24.50;58.90
79055;DHT22;68452;47.186;-1.528;2023-07-08T10:16:53;24.50;57.90
79055;DHT22;68452;47.186;-1.528;2023-07-08T10:19:20;24.50;59.20
79055;DHT22;68452;47.186;-1.528;2023-07-08T10:25:11;24.70;59.60
79055;DHT22;68452;47.186;-1.528;2023-07-08T10:30:43;24.70;60.70
79055;DHT22;68452;47.186;-1.528;2023-07-08T10:33:32;24.70;60.40
79055;DHT22;68452;47.186;-1.528;2023-07-08T10:39:14;24.80;61.30
79055;DHT22;68452;47.186;-1.528;2023-07-08T10:47:38;24.90;61.20
79055;DHT22;68452;47.186;-1.528;2023-07-08T10:55:58;24.90;59.10
79055;DHT22;68452;47.186;-1.528;2023-07-08T11:06:57;25.10;58.70
79055;DHT22;68452;47.186;-1.528;2023-07-08T11:09:48;25.10;60.00
79055;DHT22;68452;47.186;-1.528;2023-07-08T11:12:39;25.10;59.10
79055;DHT22;68452;47.186;-1.528;2023-07-08T11:15:26;25.10;58.60
79055;DHT22;68452;47.186;-1.528;2023-07-08T11:18:02;25.20;59.80
79055;DHT22;68452;47.186;-1.528;2023-07-08T11:23:48;25.30;60.20
79055;DHT22;68452;47.186;-1.528;2023-07-08T11:26:32;25.30;60.70
79055;DHT22;68452;47.186;-1.528;2023-07-08T11:29:00;25.30;59.70
79055;DHT22;68452;47.186;-1.528;2023-07-08T11:31:31;25.40;59.70
79055;DHT22;68452;47.186;-1.528;2023-07-08T11:33:59;25.30;59.30
79055;DHT22;68452;47.186;-1.528;2023-07-08T11:36:27;25.40;60.00
79055;DHT22;68452;47.186;-1.528;2023-07-08T11:38:56;25.40;60.20
79055;DHT22;68452;47.186;-1.528;2023-07-08T11:41:26;25.50;58.90
79055;DHT22;68452;47.186;-1.528;2023-07-08T11:44:04;25.50;59.40
79055;DHT22;68452;47.186;-1.528;2023-07-08T11:46:32;25.50;58.40
79055;DHT22;68452;47.186;-1.528;2023-07-08T11:49:10;25.50;58.40
79055;DHT22;68452;47.186;-1.528;2023-07-08T11:51:41;25.50;57.60
79055;DHT22;68452;47.186;-1.528;2023-07-08T11:54:30;25.50;57.50
79055;DHT22;68452;47.186;-1.528;2023-07-08T11:57:04;25.50;58.40
79055;DHT22;68452;47.186;-1.528;2023-07-08T11:59:36;25.50;58.90
79055;DHT22;68452;47.186;-1.528;2023-07-08T12:02:09;25.50;58.70
79055;DHT22;68452;47.186;-1.528;2023-07-08T12:05:11;25.50;58.90
79055;DHT22;68452;47.186;-1.528;2023-07-08T12:07:47;25.50;58.90
79055;DHT22;68452;47.186;-1.528;2023-07-08T12:10:28;25.50;57.90
79055;DHT22;68452;47.186;-1.528;2023-07-08T12:12:54;25.50;57.90
79055;DHT22;68452;47.186;-1.528;2023-07-08T12:15:31;25.50;57.90
79055;DHT22;68452;47.186;-1.528;2023-07-08T12:18:23;25.50;58.90
79055;DHT22;68452;47.186;-1.528;2023-07-08T12:20:56;25.50;57.10
79055;DHT22;68452;47.186;-1.528;2023-07-08T12:23:24;25.50;57.50
79055;DHT22;68452;47.186;-1.528;2023-07-08T12:25:51;25.50;57.30
79055;DHT22;68452;47.186;-1.528;2023-07-08T12:28:18;25.60;57.20
79055;DHT22;68452;47.186;-1.528;2023-07-08T12:30:45;25.60;56.70
79055;DHT22;68452;47.186;-1.528;2023-07-08T12:35:51;25.60;55.60
79055;DHT22;68452;47.186;-1.528;2023-07-08T12:38:26;25.60;56.30
79055;DHT22;68452;47.186;-1.528;2023-07-08T12:41:00;25.70;56.30
79055;DHT22;68452;47.186;-1.528;2023-07-08T12:43:27;25.70;56.90
79055;DHT22;68452;47.186;-1.528;2023-07-08T12:45:53;25.70;56.60
79055;DHT22;68452;47.186;-1.528;2023-07-08T12:48:19;25.70;56.30
79055;DHT22;68452;47.186;-1.528;2023-07-08T12:50:45;25.70;57.00
79055;DHT22;68452;47.186;-1.528;2023-07-08T12:53:11;25.70;57.00
79055;DHT22;68452;47.186;-1.528;2023-07-08T12:55:43;25.70;57.90
79055;DHT22;68452;47.186;-1.528;2023-07-08T12:58:42;25.70;57.90
79055;DHT22;68452;47.186;-1.528;2023-07-08T13:01:15;25.60;57.60
79055;DHT22;68452;47.186;-1.528;2023-07-08T13:03:43;25.60;56.90
79055;DHT22;68452;47.186;-1.528;2023-07-08T13:06:16;25.60;57.50
79055;DHT22;68452;47.186;-1.528;2023-07-08T13:08:42;25.60;58.20
79055;DHT22;68452;47.186;-1.528;2023-07-08T13:11:11;25.60;57.40
79055;DHT22;68452;47.186;-1.528;2023-07-08T13:16:13;25.60;57.30
79055;DHT22;68452;47.186;-1.528;2023-07-08T13:18:41;25.60;57.10
79055;DHT22;68452;47.186;-1.528;2023-07-08T13:21:12;25.60;57.70
79055;DHT22;68452;47.186;-1.528;2023-07-08T13:23:38;25.60;57.90
79055;DHT22;68452;47.186;-1.528;2023-07-08T13:26:18;25.60;57.70
79055;DHT22;68452;47.186;-1.528;2023-07-08T13:28:46;25.60;57.80
79055;DHT22;68452;47.186;-1.528;2023-07-08T13:31:23;25.60;57.80
79055;DHT22;68452;47.186;-1.528;2023-07-08T13:33:54;25.60;57.40
79055;DHT22;68452;47.186;-1.528;2023-07-08T13:36:24;25.60;57.60
79055;DHT22;68452;47.186;-1.528;2023-07-08T13:38:50;25.60;58.50
79055;DHT22;68452;47.186;-1.528;2023-07-08T13:41:22;25.60;58.40
79055;DHT22;68452;47.186;-1.528;2023-07-08T13:43:49;25.60;57.70
79055;DHT22;68452;47.186;-1.528;2023-07-08T13:54:53;25.70;56.90
79055;DHT22;68452;47.186;-1.528;2023-07-08T13:57:22;25.80;57.00
79055;DHT22;68452;47.186;-1.528;2023-07-08T13:59:49;25.80;56.70
79055;DHT22;68452;47.186;-1.528;2023-07-08T14:02:18;25.80;56.20
79055;DHT22;68452;47.186;-1.528;2023-07-08T14:04:46;25.80;55.80
79055;DHT22;68452;47.186;-1.528;2023-07-08T14:07:25;25.90;55.50
79055;DHT22;68452;47.186;-1.528;2023-07-08T14:09:51;25.90;56.10
79055;DHT22;68452;47.186;-1.528;2023-07-08T14:12:18;25.90;55.70
79055;DHT22;68452;47.186;-1.528;2023-07-08T14:14:44;26.00;54.80
79055;DHT22;68452;47.186;-1.528;2023-07-08T14:17:12;26.00;55.80
79055;DHT22;68452;47.186;-1.528;2023-07-08T14:19:39;26.00;56.10
79055;DHT22;68452;47.186;-1.528;2023-07-08T14:24:40;26.20;55.10
79055;DHT22;68452;47.186;-1.528;2023-07-08T14:27:10;26.30;55.80
79055;DHT22;68452;47.186;-1.528;2023-07-08T14:29:38;26.30;55.40
79055;DHT22;68452;47.186;-1.528;2023-07-08T14:32:16;26.30;55.80
79055;DHT22;68452;47.186;-1.528;2023-07-08T14:34:51;26.30;55.80
79055;DHT22;68452;47.186;-1.528;2023-07-08T14:37:18;26.30;55.10
79055;DHT22;68452;47.186;-1.528;2023-07-08T14:39:44;26.30;56.20
79055;DHT22;68452;47.186;-1.528;2023-07-08T14:42:16;26.40;56.10
79055;DHT22;68452;47.186;-1.528;2023-07-08T14:44:45;26.50;56.10
79055;DHT22;68452;47.186;-1.528;2023-07-08T14:47:13;26.60;55.50
79055;DHT22;68452;47.186;-1.528;2023-07-08T14:49:39;26.70;56.10
79055;DHT22;68452;47.186;-1.528;2023-07-08T14:52:06;26.70;54.80
79055;DHT22;68452;47.186;-1.528;2023-07-08T14:54:32;26.80;53.80
79055;DHT22;68452;47.186;-1.528;2023-07-08T14:56:59;26.80;52.80
79055;DHT22;68452;47.186;-1.528;2023-07-08T14:59:27;26.90;54.10
79055;DHT22;68452;47.186;-1.528;2023-07-08T15:01:55;27.00;54.20
79055;DHT22;68452;47.186;-1.528;2023-07-08T15:04:22;27.10;53.30
79055;DHT22;68452;47.186;-1.528;2023-07-08T15:06:48;27.20;53.20
79055;DHT22;68452;47.186;-1.528;2023-07-08T15:09:16;27.20;52.80
79055;DHT22;68452;47.186;-1.528;2023-07-08T15:11:44;27.20;52.50
79055;DHT22;68452;47.186;-1.528;2023-07-08T15:14:28;27.20;51.80
79055;DHT22;68452;47.186;-1.528;2023-07-08T15:16:55;27.20;51.30
79055;DHT22;68452;47.186;-1.528;2023-07-08T15:19:22;27.20;51.10
79055;DHT22;68452;47.186;-1.528;2023-07-08T15:21:48;27.10;51.40
79055;DHT22;68452;47.186;-1.528;2023-07-08T15:24:15;27.00;51.00
79055;DHT22;68452;47.186;-1.528;2023-07-08T15:26:43;27.00;51.80
79055;DHT22;68452;47.186;-1.528;2023-07-08T15:29:19;27.00;51.10
79055;DHT22;68452;47.186;-1.528;2023-07-08T15:31:46;27.00;51.90
79055;DHT22;68452;47.186;-1.528;2023-07-08T15:34:15;27.00;52.20
79055;DHT22;68452;47.186;-1.528;2023-07-08T15:36:42;27.00;52.30
79055;DHT22;68452;47.186;-1.528;2023-07-08T15:39:08;27.00;51.80
79055;DHT22;68452;47.186;-1.528;2023-07-08T15:41:36;27.00;52.30
79055;DHT22;68452;47.186;-1.528;2023-07-08T15:44:04;27.00;52.20
79055;DHT22;68452;47.186;-1.528;2023-07-08T15:46:36;27.00;51.70
79055;DHT22;68452;47.186;-1.528;2023-07-08T15:49:14;27.00;51.70
79055;DHT22;68452;47.186;-1.528;2023-07-08T15:51:41;27.00;51.90
79055;DHT22;68452;47.186;-1.528;2023-07-08T15:54:07;27.00;52.00
79055;DHT22;68452;47.186;-1.528;2023-07-08T15:56:33;27.00;52.30
79055;DHT22;68452;47.186;-1.528;2023-07-08T15:58:59;27.00;51.80
79055;DHT22;68452;47.186;-1.528;2023-07-08T16:01:25;27.00;52.10
79055;DHT22;68452;47.186;-1.528;2023-07-08T16:03:52;27.00;52.00
79055;DHT22;68452;47.186;-1.528;2023-07-08T16:06:18;26.90;52.10
79055;DHT22;68452;47.186;-1.528;2023-07-08T16:08:45;26.90;52.40
79055;DHT22;68452;47.186;-1.528;2023-07-08T16:11:26;26.90;52.70
79055;DHT22;68452;47.186;-1.528;2023-07-08T16:13:54;26.90;52.90
79055;DHT22;68452;47.186;-1.528;2023-07-08T16:16:20;26.90;52.20
79055;DHT22;68452;47.186;-1.528;2023-07-08T16:18:47;26.90;52.20
79055;DHT22;68452;47.186;-1.528;2023-07-08T16:21:13;26.80;52.30